Time;durP1;ratioP1;P1;durP2;ratioP2;P2;SDS_P1;SDS_P2;PMS_P1;PMS_P2;Temp;Humidity;BMP_temperature;BMP_pressure;BME280_temperature;BME280_humidity;BME280_pressure;Samples;Min_cycle;Max_cycle;Signal;HPM_P1;HPM_P2
2022/05/16 00:01:54;;;;;;;26.17;23.77;;;;;;;20.03;86.78;99761.03;5072171;28;20650;-62
2022/05/16 00:04:21;;;;;;;24.50;22.40;;;;;;;20.03;86.07;99755.81;5072123;28;20194;-61
2022/05/16 00:06:48;;;;;;;25.17;22.87;;;;;;;20.02;85.44;99762.78;5069714;28;20203;-62
2022/05/16 00:09:16;;;;;;;26.87;24.57;;;;;;;20.03;84.03;99758.41;5071841;28;20914;-61
2022/05/16 00:11:43;;;;;;;26.37;23.87;;;;;;;19.97;83.02;99764.59;5052758;28;21040;-62
2022/05/16 00:14:11;;;;;;;26.43;24.03;;;;;;;19.95;82.92;99770.75;5062483;28;20204;-62
2022/05/16 00:16:39;;;;;;;27.02;24.75;;;;;;;19.96;83.29;99767.25;5051257;28;20523;-61
2022/05/16 00:19:06;;;;;;;26.13;23.83;;;;;;;19.66;82.47;99715.63;5052327;28;20207;-61
2022/05/16 00:21:33;;;;;;;27.27;24.87;;;;;;;19.96;82.49;99770.72;5052380;28;20193;-62
2022/05/16 00:24:00;;;;;;;25.97;23.63;;;;;;;19.88;82.62;99767.41;5071818;28;20200;-61
2022/05/16 00:26:28;;;;;;;27.10;24.77;;;;;;;19.83;82.65;99765.75;5072180;28;20230;-61
2022/05/16 00:28:55;;;;;;;27.60;24.97;;;;;;;19.62;83.53;99766.06;5057880;28;20219;-61
2022/05/16 00:31:22;;;;;;;27.53;24.93;;;;;;;19.62;83.71;99771.28;5052318;28;20341;-61
2022/05/16 00:33:49;;;;;;;29.75;27.25;;;;;;;19.60;84.05;99758.28;5051649;28;20439;-61
2022/05/16 00:36:16;;;;;;;29.97;27.00;;;;;;;19.60;84.04;99765.25;5052154;28;20196;-61
2022/05/16 00:38:43;;;;;;;29.47;26.97;;;;;;;19.50;84.28;99761.06;5051957;28;20642;-61
2022/05/16 00:41:10;;;;;;;29.53;26.83;;;;;;;19.39;84.68;99767.28;5067285;28;20199;-63
2022/05/16 00:43:47;;;;;;;29.77;26.97;;;;;;;19.38;84.99;99767.34;5061858;28;20204;-62
2022/05/16 00:46:14;;;;;;;33.33;30.33;;;;;;;19.32;85.58;99770.84;5050673;28;20530;-63
2022/05/16 00:48:41;;;;;;;31.53;28.83;;;;;;;19.31;84.83;99776.94;5051948;28;20282;-62
2022/05/16 00:51:12;;;;;;;31.37;28.43;;;;;;;19.21;85.27;99771.88;5051828;28;20204;-63
2022/05/16 00:53:39;;;;;;;29.47;26.50;;;;;;;19.18;85.16;99770.19;5051902;28;20196;-62
2022/05/16 00:56:08;;;;;;;30.60;27.93;;;;;;;19.03;85.99;99765.22;5051678;28;20210;-62
2022/05/16 00:58:37;;;;;;;33.07;30.17;;;;;;;18.85;87.10;99755.00;5051463;28;20192;-62
2022/05/16 01:04:47;;;;;;;32.30;29.40;;;;;;;18.87;87.67;99768.03;5051820;28;21026;-62
2022/05/16 01:06:39;;;;;;;33.20;30.33;;;;;;;18.83;87.93;99755.03;5051552;28;20211;-61
2022/05/16 01:09:06;;;;;;;32.60;29.67;;;;;;;18.77;88.32;99759.47;5051504;28;20192;-63
2022/05/16 01:11:34;;;;;;;33.83;30.83;;;;;;;18.73;88.43;99763.00;5051328;28;20446;-62
2022/05/16 01:14:01;;;;;;;31.17;28.47;;;;;;;18.76;88.30;99771.59;5051623;28;21019;-63
2022/05/16 01:16:29;;;;;;;31.00;28.00;;;;;;;18.67;88.03;99766.53;5051510;28;20200;-63
2022/05/16 01:18:57;;;;;;;29.57;26.97;;;;;;;18.64;88.05;99770.91;5051541;28;20192;-63
2022/05/16 01:21:34;;;;;;;32.53;29.50;;;;;;;18.60;88.43;99774.41;5051245;28;20199;-62
2022/05/16 01:24:07;;;;;;;32.23;29.23;;;;;;;18.52;89.41;99777.09;5051184;28;20192;-62
2022/05/16 01:26:35;;;;;;;34.30;30.97;;;;;;;18.48;89.92;99766.75;5050960;28;20212;-63
2022/05/16 01:29:03;;;;;;;35.28;31.88;;;;;;;18.45;90.48;99764.16;5050953;28;20969;-63
2022/05/16 01:31:31;;;;;;;35.50;32.20;;;;;;;18.42;90.56;99769.41;5051076;28;20214;-62
2022/05/16 01:33:58;;;;;;;35.57;32.17;;;;;;;18.45;90.68;99767.63;5056091;28;20199;-62
2022/05/16 01:36:25;;;;;;;35.07;31.80;;;;;;;18.45;90.78;99769.38;5071108;28;20194;-62
2022/05/16 01:38:52;;;;;;;33.60;30.60;;;;;;;18.48;90.92;99767.63;5071239;28;20270;-62
2022/05/16 01:41:23;;;;;;;38.00;34.45;;;;;;;18.46;91.41;99773.69;5070671;28;20441;-62
2022/05/16 01:43:55;;;;;;;34.20;31.07;;;;;;;18.51;90.92;99770.19;5070909;28;20597;-62
2022/05/16 01:46:27;;;;;;;35.87;32.63;;;;;;;18.54;90.58;99771.91;5071050;28;20208;-63
2022/05/16 01:48:54;;;;;;;37.80;34.45;;;;;;;18.37;90.74;99742.56;5070087;28;20460;-62
2022/05/16 01:51:22;;;;;;;34.37;31.00;;;;;;;18.58;90.32;99774.44;5070875;28;20274;-62
2022/05/16 01:53:49;;;;;;;33.43;30.43;;;;;;;18.56;89.74;99776.22;5070792;28;20206;-61
2022/05/16 01:56:16;;;;;;;32.47;29.37;;;;;;;18.57;89.84;99766.66;5070809;28;20184;-62
2022/05/16 01:58:45;;;;;;;32.67;29.60;;;;;;;18.59;89.10;99773.56;5070606;28;20693;-62
2022/05/16 02:01:14;;;;;;;32.60;29.57;;;;;;;18.58;89.08;99771.84;5070809;28;20206;-62
2022/05/16 02:03:44;;;;;;;28.90;26.27;;;;;;;18.52;88.03;99778.84;5070408;28;20681;-62
2022/05/16 02:06:11;;;;;;;30.95;28.25;;;;;;;18.51;87.66;99771.94;5069935;28;20456;-61
2022/05/16 02:08:38;;;;;;;27.97;25.40;;;;;;;18.54;87.27;99771.91;5070524;28;20207;-62
2022/05/16 02:11:06;;;;;;;29.57;26.77;;;;;;;18.30;87.17;99728.75;5070575;28;20195;-62
2022/05/16 02:13:34;;;;;;;30.03;27.33;;;;;;;18.54;87.32;99770.13;5070347;28;20207;-62
2022/05/16 02:16:02;;;;;;;30.90;27.93;;;;;;;18.50;87.35;99767.59;5070349;28;20191;-62
2022/05/16 02:18:29;;;;;;;34.70;31.80;;;;;;;18.49;87.85;99774.53;5069486;28;20974;-62
2022/05/16 02:24:38;;;;;;;33.77;30.47;;;;;;;18.47;87.92;99767.59;5070282;28;20555;-62
2022/05/16 02:26:28;;;;;;;26.73;24.27;;;;;;;18.39;84.92;99775.50;5070285;28;20237;-62
2022/05/16 02:28:55;;;;;;;23.60;21.23;;;;;;;18.33;83.95;99772.09;5070574;28;20200;-62
2022/05/16 02:31:23;;;;;;;21.27;19.17;;;;;;;18.28;82.88;99769.53;5070250;28;20192;-62
2022/05/16 02:33:50;;;;;;;20.97;19.07;;;;;;;18.16;82.43;99774.84;5070392;28;20183;-62
2022/05/16 02:36:17;;;;;;;21.55;19.73;;;;;;;18.10;82.64;99767.97;5069881;28;20444;-62
2022/05/16 02:38:44;;;;;;;19.97;18.27;;;;;;;18.12;82.26;99774.06;5070220;28;20226;-62
2022/05/16 02:41:11;;;;;;;19.77;17.90;;;;;;;18.11;82.11;99772.31;5069964;28;20256;-62
2022/05/16 02:43:38;;;;;;;20.95;19.15;;;;;;;18.10;82.18;99770.56;5069358;28;20434;-62
2022/05/16 02:46:05;;;;;;;21.93;19.83;;;;;;;18.16;81.77;99770.53;5071304;28;20227;-63
2022/05/16 02:48:33;;;;;;;20.90;18.83;;;;;;;18.17;82.08;99772.25;5074547;28;20222;-63
2022/05/16 02:51:00;;;;;;;18.97;17.00;;;;;;;18.13;81.23;99767.94;5073877;28;20195;-62
2022/05/16 02:53:27;;;;;;;19.73;18.00;;;;;;;18.13;81.11;99774.88;5074143;28;20203;-62
2022/05/16 02:55:54;;;;;;;19.27;17.48;;;;;;;18.19;80.78;99770.50;5072292;28;20430;-61
2022/05/16 02:58:20;;;;;;;17.93;16.23;;;;;;;18.23;79.94;99771.34;5073384;28;20188;-62
2022/05/16 03:00:48;;;;;;;19.25;17.25;;;;;;;18.17;79.70;99774.84;5073431;28;20437;-62
2022/05/16 03:03:15;;;;;;;18.43;15.83;;;;;;;18.14;79.17;99772.28;5072041;28;20284;-62
2022/05/16 03:05:43;;;;;;;17.53;15.97;;;;;;;18.02;79.65;99776.75;5061318;28;20195;-62
2022/05/16 03:08:10;;;;;;;16.47;15.00;;;;;;;17.98;79.80;99775.03;5061236;28;20204;-62
2022/05/16 03:10:37;;;;;;;17.17;15.67;;;;;;;17.98;80.05;99772.44;5053602;28;20203;-61
2022/05/16 03:13:04;;;;;;;18.60;16.90;;;;;;;18.00;79.94;99773.28;5053092;28;20471;-61
2022/05/16 03:15:31;;;;;;;17.73;15.93;;;;;;;18.05;79.84;99779.31;5053673;28;20200;-61
2022/05/16 03:17:58;;;;;;;19.03;17.03;;;;;;;18.04;79.83;99781.06;5071124;28;20214;-61
2022/05/16 03:20:25;;;;;;;19.53;17.73;;;;;;;17.99;80.27;99777.63;5073167;28;20198;-61
2022/05/16 03:22:53;;;;;;;18.00;16.10;;;;;;;18.00;80.38;99788.88;5072579;28;20211;-61
2022/05/16 03:25:20;;;;;;;18.40;16.80;;;;;;;17.96;80.43;99793.28;5073055;28;20285;-61
2022/05/16 03:27:47;;;;;;;18.07;16.47;;;;;;;17.93;80.65;99792.44;5072990;28;20227;-62
2022/05/16 03:30:14;;;;;;;19.13;17.40;;;;;;;18.00;80.95;99796.69;5072211;28;20434;-62
2022/05/16 03:32:41;;;;;;;18.60;17.00;;;;;;;18.07;80.20;99796.66;5073341;28;20187;-61
2022/05/16 03:35:09;;;;;;;19.23;17.53;;;;;;;18.08;79.94;99795.75;5073086;28;20669;-61
2022/05/16 03:37:36;;;;;;;20.13;18.20;;;;;;;18.06;80.06;99791.44;5072171;28;20441;-60
2022/05/16 03:42:50;;;;;;;17.37;15.63;;;;;;;18.13;78.85;99798.28;5071749;28;20569;-61
2022/05/16 03:45:16;;;;;;;16.70;15.00;;;;;;;18.09;78.36;99800.09;5071999;28;20195;-61
2022/05/16 03:47:43;;;;;;;17.10;15.37;;;;;;;18.14;78.32;99805.22;5071978;28;20226;-61
2022/05/16 03:50:12;;;;;;;16.40;14.90;;;;;;;18.16;77.81;99804.34;5071994;28;20609;-61
2022/05/16 03:52:39;;;;;;;16.07;14.53;;;;;;;18.16;77.65;99809.53;5071819;28;20241;-62
2022/05/16 03:55:09;;;;;;;18.10;16.20;;;;;;;18.24;77.89;99825.06;5071635;28;20451;-62
2022/05/16 03:57:36;;;;;;;17.00;15.37;;;;;;;18.22;77.31;99825.09;5071432;28;20187;-62
2022/05/16 04:00:04;;;;;;;17.23;15.53;;;;;;;18.26;77.37;99825.94;5071871;28;20196;-62
2022/05/16 04:02:31;;;;;;;16.80;15.20;;;;;;;18.25;76.80;99824.19;5071433;28;20200;-61
2022/05/16 04:04:58;;;;;;;16.63;14.83;;;;;;;18.16;76.45;99832.06;5066785;28;20593;-62
2022/05/16 04:07:25;;;;;;;17.00;15.40;;;;;;;18.17;76.77;99829.47;5066331;28;20816;-62
2022/05/16 04:09:51;;;;;;;16.50;14.53;;;;;;;18.28;76.08;99832.84;5071586;28;20203;-62
2022/05/16 04:12:20;;;;;;;14.97;13.57;;;;;;;18.33;75.75;99834.53;5071301;28;20662;-62
2022/05/16 04:14:47;;;;;;;17.23;15.63;;;;;;;18.35;75.53;99832.78;5070498;28;20440;-62
2022/05/16 04:17:14;;;;;;;15.77;14.13;;;;;;;18.41;75.35;99827.50;5071356;28;20191;-62
2022/05/16 04:19:41;;;;;;;16.37;14.80;;;;;;;18.51;75.22;99829.19;5071181;28;20191;-61
2022/05/16 04:22:08;;;;;;;17.67;15.87;;;;;;;18.62;74.95;99842.94;5071107;28;20635;-62
2022/05/16 04:24:35;;;;;;;16.47;14.83;;;;;;;18.70;74.61;99835.91;5071362;28;20198;-62
2022/05/16 04:27:02;;;;;;;15.50;14.03;;;;;;;18.73;74.27;99841.94;5070332;28;20218;-62
2022/05/16 04:29:30;;;;;;;16.50;14.90;;;;;;;18.74;74.02;99842.81;5071014;28;20755;-62
2022/05/16 04:31:57;;;;;;;16.27;14.63;;;;;;;18.76;74.06;99838.47;5071067;28;20628;-62
2022/05/16 04:34:24;;;;;;;16.43;14.73;;;;;;;18.92;73.69;99845.22;5070869;28;20192;-62
2022/05/16 04:36:51;;;;;;;15.70;14.30;;;;;;;19.01;73.03;99846.84;5069911;28;20192;-62
2022/05/16 04:39:18;;;;;;;15.97;14.43;;;;;;;19.11;72.29;99840.63;5029803;28;1189147;-63
2022/05/16 04:44:36;;;;;;;15.13;13.73;;;;;;;19.30;71.00;99831.69;5071851;28;20198;-63
2022/05/16 04:47:03;;;;;;;17.77;14.60;;;;;;;19.44;71.13;99850.66;5071431;28;20273;-62
2022/05/16 04:49:30;;;;;;;15.77;14.27;;;;;;;19.52;70.58;99835.75;5071523;28;20200;-62
2022/05/16 04:51:58;;;;;;;16.87;14.23;;;;;;;19.59;70.34;99836.50;5071819;28;20192;-63
2022/05/16 04:54:25;;;;;;;15.37;13.97;;;;;;;19.62;70.23;99841.69;5071465;28;20192;-63
2022/05/16 04:56:52;;;;;;;18.53;15.40;;;;;;;19.74;69.94;99839.75;5071558;28;20566;-63
2022/05/16 04:59:19;;;;;;;15.50;14.10;;;;;;;19.84;69.52;99848.28;5071452;28;20195;-63
2022/05/16 05:01:48;;;;;;;14.87;13.37;;;;;;;19.82;69.37;99843.13;5071752;28;20199;-63
2022/05/16 05:04:15;;;;;;;14.32;13.13;;;;;;;19.87;68.78;99849.13;5070302;28;20943;-63
2022/05/16 05:06:42;;;;;;;18.03;12.90;;;;;;;20.01;68.60;99839.31;5071390;28;20219;-62
2022/05/16 05:09:09;;;;;;;18.10;13.93;;;;;;;20.02;68.51;99845.41;5070578;28;20199;-62
2022/05/16 05:14:33;;;;;;;14.07;12.67;;;;;;;20.15;68.24;99846.91;5071348;28;20280;-62
2022/05/16 05:17:02;;;;;;;14.47;13.07;;;;;;;20.19;68.15;99845.97;5071402;28;20191;-63
2022/05/16 05:19:29;;;;;;;14.93;13.53;;;;;;;20.18;67.90;99846.88;5070549;28;20199;-61
2022/05/16 05:21:56;;;;;;;15.10;13.60;;;;;;;20.30;67.84;99853.69;5066856;28;20468;-62
2022/05/16 05:24:22;;;;;;;15.27;13.80;;;;;;;20.50;67.78;99854.16;5066783;28;20198;-61
2022/05/16 05:26:49;;;;;;;14.33;13.03;;;;;;;20.60;68.34;99853.13;5070399;28;20215;-62
2022/05/16 05:29:18;;;;;;;14.97;13.67;;;;;;;20.66;67.86;99846.94;5070425;28;20585;-62
2022/05/16 05:31:46;;;;;;;15.03;13.43;;;;;;;20.71;67.50;99845.09;5070268;28;20437;-62
2022/05/16 05:34:14;;;;;;;15.30;13.70;;;;;;;20.72;67.64;99849.41;5070048;28;20199;-62
2022/05/16 05:36:43;;;;;;;14.33;12.97;;;;;;;20.78;67.16;99852.75;5070202;28;20195;-62
2022/05/16 05:39:12;;;;;;;14.10;12.73;;;;;;;20.87;66.68;99852.59;5070085;28;20231;-63
2022/05/16 05:41:39;;;;;;;15.63;13.97;;;;;;;21.00;66.31;99853.19;5069635;28;21066;-65
2022/05/16 05:44:06;;;;;;;14.27;12.87;;;;;;;21.09;65.53;99850.44;5070219;28;20192;-62
2022/05/16 05:46:37;;;;;;;14.43;12.87;;;;;;;20.97;65.86;99834.97;5070069;28;20555;-64
2022/05/16 05:49:04;;;;;;;13.60;12.37;;;;;;;21.17;65.47;99851.13;5069888;28;20199;-62
2022/05/16 05:51:33;;;;;;;14.03;12.73;;;;;;;21.27;64.80;99857.88;5068691;28;20238;-61
2022/05/16 05:54:00;;;;;;;15.57;14.00;;;;;;;21.34;64.68;99862.09;5068414;28;20187;-62
2022/05/16 05:56:27;;;;;;;14.87;13.30;;;;;;;21.35;64.88;99860.31;5067727;28;20202;-62
2022/05/16 05:58:54;;;;;;;15.10;13.70;;;;;;;21.41;65.08;99861.06;5068687;28;20195;-62
2022/05/16 06:01:21;;;;;;;14.17;12.73;;;;;;;21.37;64.42;99862.00;5068917;28;20199;-62
2022/05/16 06:03:48;;;;;;;16.30;12.53;;;;;;;21.45;63.84;99862.69;5069168;28;20191;-62
2022/05/16 06:06:15;;;;;;;13.60;12.43;;;;;;;21.49;64.01;99864.38;5069116;28;20574;-62
2022/05/16 06:08:43;;;;;;;15.65;14.20;;;;;;;21.56;64.06;99863.31;5069395;28;20437;-61
2022/05/16 06:11:10;;;;;;;13.07;11.77;;;;;;;21.72;63.46;99866.47;5070130;28;21023;-61
2022/05/16 06:13:38;;;;;;;14.40;13.20;;;;;;;21.73;63.31;99863.81;5070152;28;20651;-61
2022/05/16 06:16:06;;;;;;;15.17;13.63;;;;;;;21.76;63.83;99866.34;5070002;28;20199;-61
2022/05/16 06:18:33;;;;;;;14.60;13.33;;;;;;;21.88;63.58;99867.00;5069647;28;20282;-61
2022/05/16 06:21:00;;;;;;;15.60;14.10;;;;;;;21.96;63.57;99867.69;5069674;28;20246;-61
2022/05/16 06:23:27;;;;;;;15.07;13.67;;;;;;;21.98;63.48;99863.25;5066504;28;20210;-62
2022/05/16 06:25:56;;;;;;;16.85;15.15;;;;;;;22.08;64.03;99870.00;5063607;28;20918;-61
2022/05/16 06:28:25;;;;;;;15.10;13.57;;;;;;;22.02;63.04;99850.09;5064142;28;20204;-61
2022/05/16 06:30:53;;;;;;;16.90;15.00;;;;;;;22.15;63.51;99867.19;5066052;28;20183;-61
2022/05/16 06:33:22;;;;;;;15.33;13.83;;;;;;;22.21;63.24;99869.66;5063432;28;20200;-62
2022/05/16 06:35:50;;;;;;;16.93;14.93;;;;;;;22.21;63.29;99858.34;5063831;28;20210;-61
2022/05/16 06:38:19;;;;;;;17.15;15.48;;;;;;;22.25;63.59;99857.34;5060110;28;20449;-63
2022/05/16 06:40:47;;;;;;;16.53;15.03;;;;;;;22.34;63.20;99863.22;5049488;28;20192;-62
2022/05/16 06:43:17;;;;;;;17.97;15.33;;;;;;;22.47;62.64;99862.91;5049715;28;20192;-62
2022/05/16 06:45:45;;;;;;;17.80;16.05;;;;;;;22.39;62.82;99865.72;5048829;28;20439;-61
2022/05/16 06:48:12;;;;;;;17.17;15.37;;;;;;;22.54;62.67;99854.84;5049465;28;20215;-63
2022/05/16 06:50:40;;;;;;;17.37;15.67;;;;;;;22.55;62.19;99853.94;5049472;28;20232;-63
2022/05/16 06:53:10;;;;;;;17.93;16.10;;;;;;;22.39;63.67;99857.84;5053967;28;20207;-62
2022/05/16 06:55:36;;;;;;;18.27;16.67;;;;;;;22.50;63.43;99863.69;5069007;28;20442;-63
2022/05/16 06:58:04;;;;;;;17.63;15.93;;;;;;;22.73;62.97;99858.72;5068311;28;20672;-63
2022/05/16 07:00:32;;;;;;;18.07;16.13;;;;;;;22.89;62.60;99857.41;5069590;28;21027;-62
2022/05/16 07:02:59;;;;;;;16.60;15.17;;;;;;;23.06;62.18;99862.16;5069652;28;20200;-63
2022/05/16 07:05:26;;;;;;;17.27;15.73;;;;;;;22.98;61.91;99852.78;5069423;28;20990;-62
2022/05/16 07:07:53;;;;;;;17.03;15.63;;;;;;;22.94;62.88;99861.66;5069181;28;20305;-62
2022/05/16 07:10:20;;;;;;;16.63;15.13;;;;;;;23.14;62.02;99856.69;5069442;28;20199;-57
2022/05/16 07:12:46;;;;;;;17.47;15.97;;;;;;;23.20;62.11;99859.16;5069418;28;20200;-57
2022/05/16 07:15:14;;;;;;;18.03;16.33;;;;;;;23.27;62.06;99852.81;5069254;28;20199;-58
2022/05/16 07:17:42;;;;;;;19.37;17.67;;;;;;;23.27;61.50;99858.03;5068991;28;20219;-57
2022/05/16 07:20:11;;;;;;;18.33;16.73;;;;;;;23.28;61.68;99862.41;5069148;28;20503;-57
2022/05/16 07:22:41;;;;;;;17.00;15.33;;;;;;;23.36;61.61;99855.16;5069011;28;20196;-57
2022/05/16 07:25:10;;;;;;;16.77;15.37;;;;;;;23.48;61.54;99850.47;5069156;28;20196;-57
2022/05/16 07:30:22;;;;;;;18.08;16.58;;;;;;;23.64;60.94;99853.47;5069002;28;20425;-56
2022/05/16 07:32:51;;;;;;;17.70;16.17;;;;;;;23.67;60.63;99847.25;5070372;28;20211;-56
2022/05/16 07:35:22;;;;;;;17.70;16.20;;;;;;;23.73;60.57;99855.81;5068494;28;20195;-57
2022/05/16 07:37:49;;;;;;;17.03;15.30;;;;;;;23.84;59.65;99850.22;5068356;28;20295;-57
2022/05/16 07:40:17;;;;;;;17.40;15.70;;;;;;;23.91;59.94;99855.22;5071929;28;20705;-58
2022/05/16 07:42:44;;;;;;;17.00;15.53;;;;;;;24.02;59.15;99844.34;5072085;28;20257;-62
2022/05/16 07:45:12;;;;;;;16.97;15.27;;;;;;;24.14;58.73;99844.00;5071950;28;20602;-62
2022/05/16 07:47:39;;;;;;;15.47;14.10;;;;;;;24.03;58.54;99833.78;5072275;28;20227;-62
2022/05/16 07:50:09;;;;;;;17.33;15.83;;;;;;;23.97;58.70;99841.88;5071414;28;20808;-62
2022/05/16 07:52:37;;;;;;;16.87;15.37;;;;;;;24.02;58.25;99839.97;5072566;28;20192;-62
2022/05/16 07:55:05;;;;;;;16.73;15.40;;;;;;;24.07;58.21;99837.19;5070457;28;20580;-61
2022/05/16 07:57:32;;;;;;;15.90;14.50;;;;;;;23.99;58.42;99836.56;5072532;28;20188;-62
2022/05/16 07:59:59;;;;;;;16.85;15.35;;;;;;;23.94;58.35;99826.25;5072226;28;20437;-61
2022/05/16 08:02:25;;;;;;;16.77;15.20;;;;;;;24.07;58.74;99827.53;5072088;28;20188;-62
2022/05/16 08:04:52;;;;;;;16.13;14.53;;;;;;;24.22;57.76;99820.97;5072389;28;20607;-64
2022/05/16 08:07:21;;;;;;;16.60;15.10;;;;;;;24.38;57.56;99822.16;5071913;28;20408;-62
2022/05/16 08:12:34;;;;;;;15.43;14.20;;;;;;;24.34;57.13;99823.16;5072227;28;20401;-62
2022/05/16 08:15:01;;;;;;;20.73;14.20;;;;;;;24.24;57.39;99829.63;5071897;28;20192;-62
2022/05/16 08:17:28;;;;;;;16.53;14.73;;;;;;;24.23;57.54;99817.41;5071469;28;20617;-61
2022/05/16 08:19:56;;;;;;;16.38;14.95;;;;;;;24.36;57.40;99817.84;5062584;28;20473;-63
2022/05/16 08:22:32;;;;;;;14.87;13.40;;;;;;;24.49;56.85;99811.25;5068729;28;20195;-63
2022/05/16 08:24:59;;;;;;;17.37;15.80;;;;;;;24.76;56.12;99810.28;5064766;28;20194;-63
2022/05/16 08:27:26;;;;;;;16.08;14.43;;;;;;;24.98;54.71;99811.22;5070376;28;20433;-62
2022/05/16 08:29:54;;;;;;;14.27;12.97;;;;;;;25.10;54.06;99808.16;5071139;28;20681;-63
2022/05/16 08:32:23;;;;;;;13.13;11.83;;;;;;;25.32;53.65;99812.59;5060140;28;20199;-67
2022/05/16 08:34:50;;;;;;;16.20;13.77;;;;;;;25.48;52.60;99814.59;5071771;28;20191;-65
2022/05/16 08:40:04;;;;;;;11.93;10.93;;;;;;;25.41;50.55;99809.59;5071293;28;20289;-62
2022/05/16 08:42:44;;;;;;;12.87;11.63;;;;;;;25.25;49.75;99806.69;5071274;28;20242;-63
2022/05/16 08:45:17;;;;;;;12.05;10.95;;;;;;;25.34;49.83;99810.75;5070217;28;20442;-63
2022/05/16 08:47:55;;;;;;;10.90;10.03;;;;;;;25.47;48.33;99798.84;5071278;28;20225;-63
2022/05/16 08:50:28;;;;;;;10.73;9.73;;;;;;;25.56;48.39;99807.25;5071612;28;20191;-64
2022/05/16 08:53:02;;;;;;;10.70;9.70;;;;;;;25.46;47.38;99784.81;5071177;28;20213;-63
2022/05/16 08:55:35;;;;;;;11.47;9.33;;;;;;;25.59;45.59;99803.63;5071412;28;20658;-63
2022/05/16 08:58:09;;;;;;;10.95;9.95;;;;;;;25.62;46.30;99811.41;5070492;28;20438;-62
2022/05/16 09:00:41;;;;;;;11.90;10.90;;;;;;;25.56;47.55;99804.63;5070959;28;20199;-63
2022/05/16 09:03:14;;;;;;;10.93;10.03;;;;;;;25.68;47.61;99800.66;5071162;28;20192;-63
2022/05/16 09:05:47;;;;;;;13.37;11.10;;;;;;;25.82;47.71;99808.84;5071102;28;20605;-63
2022/05/16 09:08:23;;;;;;;11.65;10.40;;;;;;;25.74;47.92;99800.38;5071234;28;20196;-63
2022/05/16 09:11:00;;;;;;;14.73;12.03;;;;;;;25.98;48.25;99796.75;5071073;28;20199;-63
2022/05/16 09:13:47;;;;;;;10.93;9.87;;;;;;;26.12;46.57;99802.28;5070863;28;20274;-63
2022/05/16 09:16:29;;;;;;;11.57;10.43;;;;;;;26.19;46.85;99790.59;5070013;28;20816;-63
2022/05/16 09:19:06;;;;;;;11.27;10.17;;;;;;;26.34;46.06;99795.19;5070503;28;20630;-63
2022/05/16 09:21:44;;;;;;;10.77;9.67;;;;;;;26.30;45.36;99787.50;5070443;28;20669;-58
2022/05/16 09:24:14;;;;;;;10.60;9.80;;;;;;;26.38;45.60;99783.63;5070486;28;20195;-58
2022/05/16 09:26:50;;;;;;;11.77;9.93;;;;;;;26.46;45.24;99780.63;5070709;28;20282;-58
2022/05/16 09:29:24;;;;;;;11.25;10.30;;;;;;;26.50;45.93;99770.81;5070619;28;20211;-58
2022/05/16 09:31:55;;;;;;;10.07;9.25;;;;;;;26.55;45.21;99753.03;5070037;28;20520;-59
2022/05/16 09:34:22;;;;;;;9.80;8.75;;;;;;;26.80;42.46;99769.50;5070597;28;20195;-59
2022/05/16 09:36:50;;;;;;;6.40;5.80;;;;;;;26.89;38.35;99769.06;5054574;28;20307;-59
2022/05/16 09:39:20;;;;;;;6.15;5.65;;;;;;;26.92;36.83;99764.50;5053266;28;20224;-59
2022/05/16 09:42:02;;;;;;;7.32;6.10;;;;;;;26.91;38.12;99767.22;5050551;28;20455;-59
2022/05/16 09:44:32;;;;;;;9.73;7.80;;;;;;;26.64;40.51;99769.31;5050429;28;20203;-59
2022/05/16 09:47:22;;;;;;;8.90;7.70;;;;;;;26.66;40.04;99758.69;5050442;28;20200;-59
2022/05/16 09:50:10;;;;;;;7.60;7.00;;;;;;;26.56;39.65;99733.66;5049829;28;20722;-57
2022/05/16 09:52:42;;;;;;;7.93;7.22;;;;;;;26.70;40.02;99750.53;5049176;28;20454;-58
2022/05/16 09:55:12;;;;;;;8.15;7.45;;;;;;;26.82;38.79;99746.53;5049632;28;20203;-58
2022/05/16 09:57:47;;;;;;;8.07;7.33;;;;;;;26.60;39.83;99748.41;5050092;28;20273;-58
2022/05/16 10:00:22;;;;;;;9.85;8.20;;;;;;;26.80;39.83;99738.72;5049341;28;20489;-58
2022/05/16 10:02:56;;;;;;;7.97;7.28;;;;;;;26.79;39.01;99736.97;5049665;28;20635;-58
2022/05/16 10:05:26;;;;;;;9.43;6.72;;;;;;;26.76;38.90;99736.22;5049610;28;20192;-58
2022/05/16 10:08:00;;;;;;;8.87;8.10;;;;;;;26.63;40.00;99730.66;5049624;28;20215;-57
2022/05/16 10:10:32;;;;;;;8.75;7.78;;;;;;;26.79;39.72;99730.84;5049476;28;20681;-57
2022/05/16 10:13:00;;;;;;;8.00;7.18;;;;;;;26.93;39.36;99724.03;5049230;28;20192;-58
2022/05/16 10:15:27;;;;;;;7.45;6.85;;;;;;;27.13;37.62;99720.44;5049925;28;20199;-58
2022/05/16 10:17:57;;;;;;;7.57;6.97;;;;;;;27.36;36.26;99711.44;5049894;28;20191;-59
2022/05/16 10:20:28;;;;;;;6.88;6.28;;;;;;;27.57;35.80;99705.13;5049427;28;20615;-59
2022/05/16 10:22:59;;;;;;;6.63;5.97;;;;;;;27.73;33.55;99702.56;5058572;28;20195;-59
2022/05/16 10:25:35;;;;;;;6.78;5.28;;;;;;;27.93;32.34;99699.75;5067063;28;20700;-59
2022/05/16 10:28:08;;;;;;;5.80;5.40;;;;;;;28.04;32.30;99694.81;5064120;28;20226;-59
2022/05/16 10:33:24;;;;;;;6.55;5.88;;;;;;;28.18;32.08;99697.59;5069295;28;20230;-59
2022/05/16 10:33:26;;;;;;;6.60;5.38;;;;;;;28.12;31.71;99684.69;5068657;28;20435;-59
2022/05/16 10:35:57;;;;;;;7.80;5.85;;;;;;;27.98;31.84;99680.09;5069514;28;20276;-59
2022/05/16 10:38:33;;;;;;;6.20;5.53;;;;;;;27.93;32.54;99671.56;5069542;28;20250;-58
2022/05/16 10:41:03;;;;;;;7.63;5.97;;;;;;;27.89;32.44;99674.44;5068944;28;20793;-58
2022/05/16 10:43:41;;;;;;;7.10;5.47;;;;;;;27.80;32.62;99664.34;5070051;28;20195;-58
2022/05/16 10:46:14;;;;;;;6.72;6.05;;;;;;;27.94;32.72;99656.53;5069523;28;20203;-57
2022/05/16 10:48:47;;;;;;;6.47;5.88;;;;;;;28.07;33.15;99657.66;5069305;28;20222;-57
2022/05/16 10:51:17;;;;;;;8.35;6.68;;;;;;;28.23;33.85;99645.34;5064584;28;20449;-59
2022/05/16 10:54:00;;;;;;;6.40;5.80;;;;;;;28.32;32.91;99647.47;5064809;28;20269;-58
2022/05/16 10:56:49;;;;;;;5.82;5.28;;;;;;;27.86;32.02;99649.03;5066760;28;20194;-58
2022/05/16 10:59:32;;;;;;;6.75;6.05;;;;;;;27.99;33.02;99647.44;5049948;28;20508;-58
2022/05/16 11:02:10;;;;;;;6.63;6.03;;;;;;;28.29;32.71;99639.75;5051697;28;20211;-59
2022/05/16 11:04:50;;;;;;;7.65;6.82;;;;;;;28.51;31.84;99629.69;5063910;28;20570;-59
2022/05/16 11:07:32;;;;;;;7.90;6.63;;;;;;;28.63;31.44;99629.06;5070169;28;20192;-59
2022/05/16 11:10:06;;;;;;;8.00;6.38;;;;;;;28.80;31.29;99624.59;5071484;28;20448;-59
2022/05/16 11:12:43;;;;;;;9.50;7.65;;;;;;;29.04;30.93;99620.56;5072869;28;20195;-59
2022/05/16 11:15:23;;;;;;;10.55;6.18;;;;;;;29.09;31.02;99613.25;5072755;28;20201;-59
2022/05/16 11:17:56;;;;;;;6.07;5.47;;;;;;;28.92;29.58;99614.22;5071950;28;20932;-59
2022/05/16 11:20:28;;;;;;;6.75;5.43;;;;;;;28.73;28.99;99607.38;5073113;28;20627;-58
2022/05/16 11:22:58;;;;;;;5.60;5.10;;;;;;;28.53;29.24;99611.09;5072770;28;20557;-58
2022/05/16 11:25:34;;;;;;;5.15;4.70;;;;;;;28.28;29.37;99571.94;5072780;28;20187;-59
2022/05/16 11:28:08;;;;;;;5.70;5.20;;;;;;;28.74;27.89;99601.13;5072841;28;20194;-59
2022/05/16 11:30:45;;;;;;;5.80;3.85;;;;;;;28.95;24.58;99605.25;5072447;28;20191;-64
2022/05/16 11:33:32;;;;;;;5.18;4.78;;;;;;;28.73;26.38;99605.59;5072495;28;20755;-64
2022/05/16 11:36:05;;;;;;;5.38;4.85;;;;;;;28.75;26.77;99590.50;5056601;28;20487;-64
2022/05/16 11:38:56;;;;;;;5.28;4.70;;;;;;;29.00;26.57;99584.66;5052299;28;20228;-64
2022/05/16 11:41:45;;;;;;;5.55;4.20;;;;;;;29.13;25.20;99586.50;5057293;28;20566;-64
2022/05/16 11:44:27;;;;;;;6.45;4.88;;;;;;;29.16;28.12;99578.38;5072093;28;20200;-64
2022/05/16 11:47:07;;;;;;;6.68;5.65;;;;;;;28.82;29.64;99575.09;5071932;28;20820;-65
2022/05/16 11:49:43;;;;;;;5.05;4.75;;;;;;;29.05;30.23;99564.94;5072640;28;20226;-65
2022/05/16 11:52:32;;;;;;;6.32;5.10;;;;;;;28.95;29.57;99560.25;5072612;28;20199;-65
2022/05/16 11:55:03;;;;;;;5.50;5.00;;;;;;;29.22;29.25;99563.97;5072239;28;20195;-65
2022/05/16 12:00:35;;;;;;;6.97;5.03;;;;;;;29.09;29.14;99547.91;5071995;28;20238;-65